Impacts TAF Board INFO
FOR SITUATIONAL AWARENESS. NOT TO BE USED FOR FLIGHT PLANNING PURPOSES.
IDs:

KDEN - Denver Intl, CO, US

Issued at 1122 UTC 21 May 2018
Updated at 1313 UTC 21 May 2018
Potential Impact None Slight Moderate High
Time1253Z 21/14Z 21/15Z 21/16Z 21/17Z 21/18Z 21/19Z 21/20Z 21/21Z 21/22Z 21/23Z 22/00Z 22/01Z 22/02Z>>
Type OBS PRVL PRVL PRVL PRVL PRVL PRVL PRVL PRVL PRVL PRVL PRVL PRVL PRVL
VIS 1.25 >6 >6 >6 >6 >6 >6 >6 >6 >6 >6 >6 >6 >6
CIG 220 220 -- -- -- -- -- -- -- -- 220 220 220 220
Cover BKN BKN SCT SCT SCT SCT SCT SCT SCT SCT BKN BKN BKN BKN
FltCat IFR VFR VFR VFR VFR VFR VFR VFR VFR VFR VFR VFR VFR VFR
WX BR VCFG -- -- -- -- -- -- -- -- -- -- -- --
WDir 260 240 VRB VRB VRB VRB 30 30 30 30 330 330 330 330
WSpd 6 6 5 5 5 5 6 6 6 6 7 7 7 7
WGst -- -- -- -- -- -- -- -- -- -- -- -- -- --

Raw TAF
KDEN 211122Z 2112/2218 25006KT 1SM BR VV003
  TEMPO 2112/2113 1/4SM FG VV001
  FM211300 24006KT P6SM VCFG FEW001 BKN220
  FM211500 VRB05KT P6SM FEW001 SCT220
  FM211900 03006KT P6SM FEW120 SCT220
  FM212300 33007KT P6SM SCT100 BKN220
  FM220300 23012KT P6SM FEW120 SCT220
  FM220600 20012KT P6SM FEW120 SCT220


Raw METAR
KDEN 211253Z 26006KT 1 1/4SM BR FEW003 FEW180 BKN220 08/07 A3003 RMK AO2 SFC VIS 3 SLP136 T00780067
KDEN 211221Z 25005KT 1 1/4SM R35L/1400VP6000FT BR FEW003 FEW180 BKN220 07/06 A3003 RMK AO2 SFC VIS 1 1/2 T00670061
KDEN 211208Z 26005KT 1SM R35L/1000V1400FT BR FEW001 07/06 A3003 RMK AO2 TWR VIS 1 1/4 T00670056
KDEN 211201Z 25006KT 1/4SM R35L/1000V1600FT FG VV002 06/06 A3003 RMK AO2 TWR VIS 3/4 T00610056
KDEN 211153Z 26005KT 1/4SM R35L/1000V1800FT FG VV001 06/06 A3003 RMK AO2 TWR VIS 3/4 SLP136 T00610056 10106 20056 58002
KDEN 211134Z 25005KT 1/8SM R35L/1000V1200FT FG VV002 06/05 A3003 RMK AO2 TWR VIS 3/4 T00560050
KDEN 211131Z 25005KT 1/4SM R35L/1000V1200FT FG VV002 06/05 A3004 RMK AO2 TWR VIS 3/4 T00560050
KDEN 211104Z 24004KT 1/2SM R35L/1200V1600FT FG VV002 06/06 A3004 RMK AO2 T00610056
KDEN 211053Z 26004KT 1/4SM R35L/1400V3000FT FG VV002 07/06 A3003 RMK AO2 SLP134 T00670056
KDEN 211032Z 26007KT 1/4SM R35L/1000V1400FT FG VV001 07/06 A3004 RMK AO2 T00670061

METAR Board
Radar Display
Forecast Discussion

FOR SITUATIONAL AWARENESS. NOT TO BE USED FOR FLIGHT PLANNING PURPOSES.